createdAt,value
2022-08-19T00:01:56.750Z,19.83
2022-08-19T00:04:29.725Z,19.85
2022-08-19T00:06:58.889Z,19.85
2022-08-19T00:09:29.245Z,19.81
2022-08-19T00:12:00.592Z,19.79
2022-08-19T00:14:32.978Z,19.79
2022-08-19T00:17:04.419Z,19.80
2022-08-19T00:19:35.075Z,19.80
2022-08-19T00:22:04.620Z,19.79
2022-08-19T00:24:33.720Z,19.76
2022-08-19T00:27:25.043Z,19.75
2022-08-19T00:29:52.481Z,19.75
2022-08-19T00:32:22.180Z,19.75
2022-08-19T00:34:54.605Z,19.76
2022-08-19T00:37:24.347Z,19.73
2022-08-19T00:39:53.408Z,19.70
2022-08-19T00:42:24.034Z,19.68
2022-08-19T00:44:52.974Z,19.67
2022-08-19T00:47:21.694Z,19.67
2022-08-19T00:49:54.824Z,19.65
2022-08-19T00:52:26.696Z,19.63
2022-08-19T00:54:56.054Z,19.67
2022-08-19T00:57:29.475Z,19.65
2022-08-19T01:00:02.478Z,19.64
2022-08-19T01:02:33.314Z,19.65
2022-08-19T01:05:07.584Z,19.65
2022-08-19T01:07:42.804Z,19.63
2022-08-19T01:10:19.545Z,19.70
2022-08-19T01:12:49.281Z,19.70
2022-08-19T01:15:23.664Z,19.70
2022-08-19T01:17:53.064Z,19.65
2022-08-19T01:20:25.734Z,19.65
2022-08-19T01:22:58.134Z,19.62
2022-08-19T01:25:31.945Z,19.61
2022-08-19T01:28:10.590Z,19.62
2022-08-19T01:30:39.930Z,19.64
2022-08-19T01:33:14.684Z,19.62
2022-08-19T01:35:44.045Z,19.60
2022-08-19T01:38:23.884Z,19.61
2022-08-19T01:40:52.965Z,19.59
2022-08-19T01:43:22.026Z,19.58
2022-08-19T01:45:52.174Z,19.59
2022-08-19T01:48:20.794Z,19.58
2022-08-19T01:50:49.725Z,19.59
2022-08-19T01:53:19.644Z,19.59
2022-08-19T01:55:49.815Z,19.59
2022-08-19T01:58:25.174Z,19.57
2022-08-19T02:00:53.814Z,19.55
2022-08-19T02:03:22.309Z,19.54
2022-08-19T02:05:56.236Z,19.53
2022-08-19T02:08:26.515Z,19.52
2022-08-19T02:10:55.204Z,19.51
2022-08-19T02:13:26.467Z,19.50
2022-08-19T02:15:55.644Z,19.50
2022-08-19T02:18:28.057Z,19.48
2022-08-19T02:20:56.734Z,19.47
2022-08-19T02:23:28.464Z,19.47
2022-08-19T02:25:57.387Z,19.45
2022-08-19T02:28:25.984Z,19.44
2022-08-19T02:30:54.554Z,19.45
2022-08-19T02:33:23.155Z,19.46
2022-08-19T02:35:51.705Z,19.43
2022-08-19T02:38:28.375Z,19.41
2022-08-19T02:41:00.605Z,19.42
2022-08-19T02:43:33.803Z,19.41
2022-08-19T02:46:04.024Z,19.44
2022-08-19T02:48:34.137Z,19.42
2022-08-19T02:51:02.726Z,19.40
2022-08-19T02:53:31.755Z,19.40
2022-08-19T02:56:01.895Z,19.40
2022-08-19T02:58:30.494Z,19.37
2022-08-19T03:00:59.877Z,19.39
2022-08-19T03:03:29.054Z,19.39
2022-08-19T03:06:09.273Z,19.38
2022-08-19T03:08:38.306Z,19.38
2022-08-19T03:11:08.854Z,19.38
2022-08-19T03:13:37.364Z,19.36
2022-08-19T03:16:08.325Z,19.37
2022-08-19T03:18:36.884Z,19.37
2022-08-19T03:21:07.474Z,19.35
2022-08-19T03:23:41.517Z,19.32
2022-08-19T03:26:16.373Z,19.31
2022-08-19T03:28:47.674Z,19.30
2022-08-19T03:31:41.697Z,19.30
2022-08-19T03:34:13.650Z,19.29
2022-08-19T03:36:42.535Z,19.24
2022-08-19T03:39:12.655Z,19.26
2022-08-19T03:41:48.328Z,19.26
2022-08-19T03:44:21.802Z,19.26
2022-08-19T03:46:51.924Z,19.26
2022-08-19T03:49:21.205Z,19.21
2022-08-19T03:51:57.724Z,19.22
2022-08-19T03:54:27.351Z,19.22
2022-08-19T03:56:58.529Z,19.21
2022-08-19T03:59:29.380Z,19.20
2022-08-19T04:02:00.299Z,19.18
2022-08-19T04:04:29.074Z,19.18
2022-08-19T04:06:58.899Z,19.18
2022-08-19T04:09:28.209Z,19.20
2022-08-19T04:12:00.073Z,19.15
2022-08-19T04:14:31.879Z,19.17
2022-08-19T04:17:01.550Z,19.19
2022-08-19T04:19:32.440Z,19.18
2022-08-19T04:22:00.972Z,19.16
2022-08-19T04:24:30.319Z,19.16
2022-08-19T04:27:02.099Z,19.15
2022-08-19T04:29:31.419Z,19.13
2022-08-19T04:32:09.406Z,19.14
2022-08-19T04:35:02.640Z,19.14
2022-08-19T04:37:35.030Z,19.11
2022-08-19T04:40:23.869Z,19.09
2022-08-19T04:42:55.068Z,19.10
2022-08-19T04:45:23.927Z,19.08
2022-08-19T04:47:58.940Z,19.10
2022-08-19T04:50:46.321Z,19.09
2022-08-19T04:53:14.869Z,19.09
2022-08-19T04:55:44.449Z,19.11
2022-08-19T04:58:14.409Z,19.11
2022-08-19T05:00:43.046Z,19.09
2022-08-19T05:03:11.620Z,19.10
2022-08-19T05:05:44.716Z,19.09
2022-08-19T05:08:15.309Z,19.11
2022-08-19T05:10:45.769Z,19.09
2022-08-19T05:13:15.789Z,19.05
2022-08-19T05:15:44.530Z,19.05
2022-08-19T05:18:30.628Z,19.05
2022-08-19T05:21:16.120Z,19.05
2022-08-19T05:23:45.671Z,19.06
2022-08-19T05:26:14.134Z,19.04
2022-08-19T05:28:43.999Z,19.04
2022-08-19T05:31:13.290Z,19.04
2022-08-19T05:33:42.019Z,19.03
2022-08-19T05:36:10.550Z,19.03
2022-08-19T05:38:39.050Z,19.03
2022-08-19T05:41:10.371Z,19.03
2022-08-19T05:43:39.526Z,19.04
2022-08-19T05:46:09.949Z,19.03
2022-08-19T05:48:38.539Z,19.03
2022-08-19T05:51:08.220Z,19.03
2022-08-19T05:53:37.548Z,19.03
2022-08-19T05:56:08.080Z,19.01
2022-08-19T05:58:37.571Z,19.00
2022-08-19T06:01:07.079Z,19.00
2022-08-19T06:03:38.609Z,18.99
2022-08-19T06:06:07.549Z,19.00
2022-08-19T06:08:37.450Z,19.02
2022-08-19T06:11:20.805Z,19.01
2022-08-19T06:13:52.189Z,19.01
2022-08-19T06:16:29.020Z,19.02
2022-08-19T06:19:02.299Z,19.02
2022-08-19T06:21:32.410Z,19.01
2022-08-19T06:24:01.881Z,19.04
2022-08-19T06:26:30.579Z,19.03
2022-08-19T06:28:59.819Z,19.05
2022-08-19T06:31:32.505Z,19.06
2022-08-19T06:34:04.043Z,19.06
2022-08-19T06:36:35.501Z,19.08
2022-08-19T06:39:05.622Z,19.10
2022-08-19T06:41:39.463Z,19.10
2022-08-19T06:44:13.290Z,19.13
2022-08-19T06:46:42.942Z,19.16
2022-08-19T06:49:15.209Z,19.24
2022-08-19T06:51:47.550Z,19.26
2022-08-19T06:54:20.069Z,19.27
2022-08-19T06:56:49.371Z,19.29
2022-08-19T06:59:19.594Z,19.30
2022-08-19T07:01:50.830Z,19.32
2022-08-19T07:04:22.491Z,19.36
2022-08-19T07:06:55.281Z,19.32
2022-08-19T07:09:24.249Z,19.32
2022-08-19T07:11:54.689Z,19.31
2022-08-19T07:14:27.810Z,19.36
2022-08-19T07:16:59.220Z,19.35
2022-08-19T07:19:29.652Z,19.37
2022-08-19T07:21:58.190Z,19.37
2022-08-19T07:24:28.622Z,19.37
2022-08-19T07:27:04.449Z,19.37
2022-08-19T07:29:39.179Z,19.38
2022-08-19T07:32:11.724Z,19.43
2022-08-19T07:34:43.410Z,19.47
2022-08-19T07:37:12.240Z,19.46
2022-08-19T07:39:41.870Z,19.43
2022-08-19T07:42:13.194Z,19.42
2022-08-19T07:44:43.085Z,19.42
2022-08-19T07:47:49.137Z,19.42
2022-08-19T07:50:12.834Z,19.40
2022-08-19T07:52:41.749Z,19.41
2022-08-19T07:55:42.262Z,19.41
2022-08-19T07:58:00.255Z,19.40
2022-08-19T08:00:29.165Z,19.42
2022-08-19T08:02:57.682Z,19.42
2022-08-19T08:05:45.026Z,19.43
2022-08-19T08:08:31.075Z,19.44
2022-08-19T08:11:01.227Z,19.47
2022-08-19T08:13:30.324Z,19.47
2022-08-19T08:15:59.274Z,19.47
2022-08-19T08:18:30.424Z,19.47
2022-08-19T08:21:01.278Z,19.48
2022-08-19T08:23:31.395Z,19.53
2022-08-19T08:26:00.564Z,19.54
2022-08-19T08:28:30.916Z,19.55
2022-08-19T08:31:00.345Z,19.59
2022-08-19T08:33:33.686Z,19.58
2022-08-19T08:36:06.824Z,19.55
2022-08-19T08:38:43.008Z,19.55
2022-08-19T08:41:20.923Z,19.52
2022-08-19T08:43:53.300Z,19.59
2022-08-19T08:46:31.579Z,19.65
2022-08-19T08:49:06.924Z,19.67
2022-08-19T08:54:17.938Z,19.65
2022-08-19T08:56:48.405Z,19.67
2022-08-19T08:59:25.834Z,19.69
2022-08-19T09:01:54.536Z,19.78
2022-08-19T09:04:23.887Z,20.00
2022-08-19T09:07:18.232Z,20.02
2022-08-19T09:09:56.186Z,19.97
2022-08-19T09:12:35.525Z,19.95
2022-08-19T09:15:09.194Z,19.91
2022-08-19T09:17:39.667Z,19.98
2022-08-19T09:20:21.434Z,19.96
2022-08-19T09:22:51.934Z,19.90
2022-08-19T09:25:26.754Z,19.87
2022-08-19T09:28:02.391Z,19.84
2022-08-19T09:30:31.674Z,19.90
2022-08-19T09:33:02.274Z,19.91
2022-08-19T09:35:32.055Z,19.91
2022-08-19T09:38:20.155Z,19.95
2022-08-19T09:40:48.615Z,19.95
2022-08-19T09:43:32.952Z,19.94
2022-08-19T09:46:03.004Z,20.01
2022-08-19T09:48:31.474Z,20.05
2022-08-19T09:51:06.344Z,20.09
2022-08-19T09:53:36.264Z,20.06
2022-08-19T09:56:08.305Z,20.05
2022-08-19T09:58:38.414Z,20.09
2022-08-19T10:01:08.237Z,20.16
2022-08-19T10:03:38.976Z,20.12
2022-08-19T10:06:15.120Z,20.18
2022-08-19T10:08:50.208Z,20.18
2022-08-19T10:11:27.371Z,20.16
2022-08-19T10:14:03.565Z,20.13
2022-08-19T10:16:32.844Z,20.11
2022-08-19T10:19:08.144Z,20.13
2022-08-19T10:21:36.764Z,20.10
2022-08-19T10:24:09.344Z,20.10
2022-08-19T10:26:43.173Z,20.16
2022-08-19T10:29:12.845Z,20.15
2022-08-19T10:32:00.546Z,20.14
2022-08-19T10:34:31.903Z,20.19
2022-08-19T10:37:01.896Z,20.21
2022-08-19T10:39:42.415Z,20.21
2022-08-19T10:42:14.362Z,20.18
2022-08-19T10:44:43.545Z,20.20
2022-08-19T10:47:24.415Z,20.24
2022-08-19T10:50:13.401Z,20.25
2022-08-19T10:52:49.054Z,20.21
2022-08-19T10:55:39.251Z,20.28
2022-08-19T10:58:12.903Z,20.37
2022-08-19T11:00:42.234Z,20.38
2022-08-19T11:03:11.113Z,20.45
2022-08-19T11:05:40.684Z,20.45
2022-08-19T11:08:23.131Z,20.43
2022-08-19T11:11:00.413Z,20.25
2022-08-19T11:13:29.743Z,20.17
2022-08-19T11:16:07.390Z,20.05
2022-08-19T11:18:38.523Z,20.03
2022-08-19T11:21:15.954Z,19.96
2022-08-19T11:23:44.554Z,19.97
2022-08-19T11:26:15.089Z,19.99
2022-08-19T11:29:06.524Z,20.04
2022-08-19T11:34:33.954Z,19.95
2022-08-19T11:37:10.187Z,19.93
2022-08-19T11:39:39.290Z,19.91
2022-08-19T11:42:23.974Z,19.91
2022-08-19T11:45:58.454Z,19.92
2022-08-19T11:48:53.352Z,19.95
2022-08-19T11:51:25.824Z,19.98
2022-08-19T11:53:59.599Z,20.01
2022-08-19T11:57:04.034Z,20.03
2022-08-19T11:59:36.626Z,20.02
2022-08-19T12:02:05.693Z,20.03
2022-08-19T12:04:34.124Z,20.05
2022-08-19T12:07:03.113Z,20.04
2022-08-19T12:10:25.867Z,20.06
2022-08-19T12:13:04.574Z,20.05
2022-08-19T12:15:38.253Z,20.08
2022-08-19T12:18:07.613Z,20.08
2022-08-19T12:20:38.334Z,20.08
2022-08-19T12:23:08.633Z,20.07
2022-08-19T12:25:37.335Z,20.07
2022-08-19T12:28:06.445Z,20.08
2022-08-19T12:30:39.934Z,20.08
2022-08-19T12:33:09.005Z,20.06
2022-08-19T12:35:45.788Z,20.07
2022-08-19T12:38:28.985Z,20.07
2022-08-19T12:41:08.884Z,20.06
2022-08-19T12:43:40.758Z,20.08
2022-08-19T12:46:14.635Z,20.09
2022-08-19T12:48:46.045Z,20.09
2022-08-19T12:51:17.264Z,20.14
2022-08-19T12:53:46.875Z,20.13
2022-08-19T12:56:20.070Z,20.13
2022-08-19T12:58:52.900Z,20.16
2022-08-19T13:01:24.034Z,20.18
2022-08-19T13:03:55.075Z,20.19
2022-08-19T13:06:24.499Z,20.20
2022-08-19T13:08:57.740Z,20.22
2022-08-19T13:11:28.386Z,20.26
2022-08-19T13:13:57.523Z,20.40
2022-08-19T13:16:29.064Z,20.57
2022-08-19T13:18:59.209Z,20.65
2022-08-19T13:21:31.213Z,20.83
2022-08-19T13:24:00.614Z,20.79
2022-08-19T13:26:29.314Z,20.58
2022-08-19T13:29:15.464Z,20.63
2022-08-19T13:32:02.955Z,20.58
2022-08-19T13:34:36.934Z,20.57
2022-08-19T13:37:08.849Z,20.53
2022-08-19T13:39:38.250Z,20.54
2022-08-19T13:42:08.505Z,20.54
2022-08-19T13:44:37.454Z,20.50
2022-08-19T13:47:08.874Z,20.46
2022-08-19T13:49:38.665Z,20.47
2022-08-19T13:52:10.564Z,20.52
2022-08-19T13:54:42.446Z,20.71
2022-08-19T13:57:11.264Z,20.75
2022-08-19T13:59:40.575Z,20.71
2022-08-19T14:02:14.625Z,20.71
2022-08-19T14:04:43.445Z,20.80
2022-08-19T14:07:12.670Z,20.71
2022-08-19T14:09:41.494Z,20.62
2022-08-19T14:12:11.179Z,20.64
2022-08-19T14:14:40.739Z,20.67
2022-08-19T14:17:12.181Z,20.63
2022-08-19T14:19:42.580Z,20.59
2022-08-19T14:22:22.128Z,20.74
2022-08-19T14:24:51.517Z,20.71
2022-08-19T14:27:20.149Z,20.58
2022-08-19T14:29:48.804Z,20.52
2022-08-19T14:32:18.929Z,20.61
2022-08-19T14:34:47.850Z,20.80
2022-08-19T14:37:16.765Z,20.95
2022-08-19T14:39:46.267Z,21.00
2022-08-19T14:42:16.095Z,21.08
2022-08-19T14:44:55.109Z,21.09
2022-08-19T14:48:01.225Z,21.04
2022-08-19T14:50:38.544Z,20.93
2022-08-19T14:53:12.545Z,20.86
2022-08-19T14:55:45.465Z,20.85
2022-08-19T14:58:29.026Z,20.92
2022-08-19T15:01:00.950Z,21.03
2022-08-19T15:03:32.754Z,21.09
2022-08-19T15:06:03.274Z,21.11
2022-08-19T15:08:33.907Z,21.17
2022-08-19T15:11:03.394Z,21.14
2022-08-19T15:13:32.474Z,21.11
2022-08-19T15:20:53.146Z,21.22
2022-08-19T15:24:31.279Z,21.18
2022-08-19T15:27:00.184Z,21.12
2022-08-19T15:29:28.878Z,21.04
2022-08-19T15:31:58.334Z,21.02
2022-08-19T15:34:28.164Z,20.97
2022-08-19T15:37:00.177Z,20.85
2022-08-19T15:39:28.734Z,20.94
2022-08-19T15:41:57.254Z,20.95
2022-08-19T15:44:25.885Z,21.02
2022-08-19T15:47:11.760Z,21.11
2022-08-19T15:50:00.554Z,21.10
2022-08-19T15:53:03.775Z,21.15
2022-08-19T15:55:35.526Z,21.30
2022-08-19T15:58:29.289Z,21.33
2022-08-19T16:01:20.470Z,21.24
2022-08-19T16:04:14.669Z,21.21
2022-08-19T16:06:47.394Z,21.22
2022-08-19T16:09:17.217Z,21.21
2022-08-19T16:11:56.546Z,21.26
2022-08-19T16:14:26.594Z,21.28
2022-08-19T16:16:58.162Z,21.40
2022-08-19T16:19:27.686Z,21.41
2022-08-19T16:21:58.295Z,21.37
2022-08-19T16:24:29.466Z,21.32
2022-08-19T16:27:21.970Z,21.30
2022-08-19T16:30:35.464Z,21.22
2022-08-19T16:33:26.336Z,21.18
2022-08-19T16:39:49.400Z,21.25
2022-08-19T16:42:19.576Z,21.31
2022-08-19T16:44:48.165Z,21.44
2022-08-19T16:47:18.264Z,21.47
2022-08-19T16:49:53.817Z,21.47
2022-08-19T16:55:29.645Z,21.79
2022-08-19T16:58:02.345Z,21.86
2022-08-19T17:00:32.754Z,21.73
2022-08-19T17:03:15.418Z,21.70
2022-08-19T17:05:52.195Z,21.68
2022-08-19T17:08:30.280Z,21.61
2022-08-19T17:11:17.005Z,21.56
2022-08-19T17:13:49.605Z,21.54
2022-08-19T17:16:18.345Z,21.42
2022-08-19T17:18:53.144Z,21.37
2022-08-19T17:21:22.185Z,21.38
2022-08-19T17:23:51.105Z,21.34
2022-08-19T17:26:19.984Z,21.35
2022-08-19T17:28:51.764Z,21.30
2022-08-19T17:31:23.331Z,21.23
2022-08-19T17:33:52.484Z,21.17
2022-08-19T17:36:25.627Z,21.16
2022-08-19T17:38:56.094Z,21.21
2022-08-19T17:41:25.264Z,21.20
2022-08-19T17:43:56.440Z,21.19
2022-08-19T17:46:25.124Z,21.22
2022-08-19T17:48:57.808Z,21.22
2022-08-19T17:51:40.625Z,21.22
2022-08-19T17:54:12.336Z,21.22
2022-08-19T17:56:41.984Z,21.21
2022-08-19T17:59:14.164Z,21.19
2022-08-19T18:01:53.902Z,21.19
2022-08-19T18:04:25.197Z,21.17
2022-08-19T18:06:55.619Z,21.14
2022-08-19T18:09:26.749Z,21.10
2022-08-19T18:11:57.207Z,21.08
2022-08-19T18:14:33.966Z,21.06
2022-08-19T18:17:06.365Z,21.04
2022-08-19T18:19:40.750Z,21.03
2022-08-19T18:22:12.564Z,21.03
2022-08-19T18:24:41.889Z,21.03
2022-08-19T18:27:11.344Z,21.03
2022-08-19T18:29:41.324Z,21.06
2022-08-19T18:32:13.643Z,21.04
2022-08-19T18:34:43.632Z,21.07
2022-08-19T18:37:12.508Z,21.12
2022-08-19T18:39:58.337Z,21.16
2022-08-19T18:42:44.444Z,21.18
2022-08-19T18:45:31.744Z,21.17
2022-08-19T18:48:27.368Z,21.13
2022-08-19T18:50:58.994Z,21.13
2022-08-19T18:53:29.625Z,21.15
2022-08-19T18:55:58.346Z,21.11
2022-08-19T18:58:32.522Z,21.08
2022-08-19T19:01:11.473Z,21.04
2022-08-19T19:03:44.526Z,21.03
2022-08-19T19:06:16.325Z,21.02
2022-08-19T19:08:45.276Z,21.02
2022-08-19T19:11:15.625Z,21.00
2022-08-19T19:13:47.175Z,20.99
2022-08-19T19:16:23.709Z,20.95
2022-08-19T19:18:53.224Z,20.97
2022-08-19T19:21:25.592Z,20.92
2022-08-19T19:23:55.754Z,20.86
2022-08-19T19:26:24.544Z,20.87
2022-08-19T19:28:53.414Z,20.86
2022-08-19T19:31:26.976Z,20.83
2022-08-19T19:33:56.912Z,20.81
2022-08-19T19:36:25.745Z,20.82
2022-08-19T19:38:54.686Z,20.80
2022-08-19T19:41:24.887Z,20.79
2022-08-19T19:44:09.914Z,20.77
2022-08-19T19:46:44.015Z,20.74
2022-08-19T19:49:12.914Z,20.67
2022-08-19T19:51:42.104Z,20.63
2022-08-19T19:54:14.224Z,20.60
2022-08-19T19:56:43.795Z,20.57
2022-08-19T19:59:12.664Z,20.58
2022-08-19T20:01:47.094Z,20.58
2022-08-19T20:04:20.110Z,20.56
2022-08-19T20:06:48.819Z,20.53
2022-08-19T20:09:19.938Z,20.51
2022-08-19T20:11:53.736Z,20.49
2022-08-19T20:14:25.335Z,20.45
2022-08-19T20:16:56.899Z,20.44
2022-08-19T20:19:28.100Z,20.43
2022-08-19T20:21:57.694Z,20.41
2022-08-19T20:24:34.985Z,20.41
2022-08-19T20:27:05.551Z,20.40
2022-08-19T20:29:40.051Z,20.39
2022-08-19T20:32:11.974Z,20.41
2022-08-19T20:34:41.592Z,20.37
2022-08-19T20:37:10.295Z,20.36
2022-08-19T20:39:39.824Z,20.36
2022-08-19T20:42:08.869Z,20.35
2022-08-19T20:44:39.202Z,20.35
2022-08-19T20:47:08.199Z,20.32
2022-08-19T20:49:40.199Z,20.32
2022-08-19T20:52:09.260Z,20.30
2022-08-19T20:54:37.879Z,20.28
2022-08-19T20:57:06.449Z,20.27
2022-08-19T20:59:35.699Z,20.28
2022-08-19T21:02:04.299Z,20.27
2022-08-19T21:04:33.329Z,20.28
2022-08-19T21:07:03.645Z,20.26
2022-08-19T21:09:32.255Z,20.25
2022-08-19T21:12:01.030Z,20.23
2022-08-19T21:14:29.845Z,20.22
2022-08-19T21:16:58.459Z,20.22
2022-08-19T21:19:27.130Z,20.24
2022-08-19T21:21:59.586Z,20.24
2022-08-19T21:24:32.078Z,20.24
2022-08-19T21:27:01.543Z,20.21
2022-08-19T21:29:54.659Z,20.20
2022-08-19T21:32:27.191Z,20.20
2022-08-19T21:35:01.590Z,20.16
2022-08-19T21:37:34.131Z,20.16
2022-08-19T21:40:14.319Z,20.13
2022-08-19T21:42:52.825Z,20.12
2022-08-19T21:45:26.400Z,20.12
2022-08-19T21:47:59.110Z,20.12
2022-08-19T21:50:29.385Z,20.13
2022-08-19T21:52:59.050Z,20.12
2022-08-19T21:55:30.800Z,20.10
2022-08-19T21:58:00.560Z,20.10
2022-08-19T22:00:32.238Z,20.09
2022-08-19T22:03:01.533Z,20.08
2022-08-19T22:05:31.639Z,20.07
2022-08-19T22:08:01.450Z,20.05
2022-08-19T22:10:35.980Z,20.03
2022-08-19T22:13:05.375Z,20.01
2022-08-19T22:15:34.210Z,20.00
2022-08-19T22:18:03.178Z,19.98
2022-08-19T22:20:33.370Z,19.98
2022-08-19T22:23:07.421Z,20.00
2022-08-19T22:25:40.191Z,20.00
2022-08-19T22:28:13.889Z,20.02
2022-08-19T22:30:44.110Z,20.03
2022-08-19T22:33:23.105Z,20.03
2022-08-19T22:36:05.839Z,20.03
2022-08-19T22:38:36.740Z,20.02
2022-08-19T22:41:11.932Z,20.01
2022-08-19T22:43:45.760Z,20.02
2022-08-19T22:46:17.695Z,20.00
2022-08-19T22:49:01.007Z,20.02
2022-08-19T22:51:49.860Z,20.02
2022-08-19T22:54:19.556Z,19.98
2022-08-19T22:56:52.375Z,19.95
2022-08-19T22:59:21.715Z,19.92
2022-08-19T23:01:51.080Z,19.90
2022-08-19T23:04:20.269Z,19.88
2022-08-19T23:06:49.060Z,19.86
2022-08-19T23:09:18.249Z,19.87
2022-08-19T23:11:54.139Z,19.85
2022-08-19T23:14:24.060Z,19.84
2022-08-19T23:16:56.966Z,19.82
2022-08-19T23:19:27.340Z,19.81
2022-08-19T23:21:56.396Z,19.81
2022-08-19T23:24:24.919Z,19.80
2022-08-19T23:27:12.489Z,19.78
2022-08-19T23:29:58.089Z,19.78
2022-08-19T23:32:26.994Z,19.77
2022-08-19T23:34:57.489Z,19.76
2022-08-19T23:37:28.699Z,19.76
2022-08-19T23:39:57.486Z,19.75
2022-08-19T23:42:27.520Z,19.76
2022-08-19T23:45:02.319Z,19.76
2022-08-19T23:47:32.702Z,19.75
2022-08-19T23:50:02.209Z,19.74
2022-08-19T23:52:30.891Z,19.73
2022-08-19T23:55:02.644Z,19.72
2022-08-19T23:57:32.620Z,19.73
